Hundvaag 1 weather for Feb 1995
Month no. 92
Obs.
Da.
Temp. Dew Point Precip. Wind
Speed
Wind gusts Cloud cover Press. Humidity Wind dir. Sunny OPT
01.02.1995 4,1   3,9     0          
02.02.1995 -0,9   1,0     0          
03.02.1995 3,0   4,8     0          
04.02.1995 4,1   14,7     1       1  
05.02.1995 3,5   1,9     0          
06.02.1995 6,0   4,7     0          
07.02.1995 -0,1   11,1     0          
08.02.1995 -1,7   4,3     9          
09.02.1995 -3,0   6,4     7          
10.02.1995 -3,0   1,0     3          
11.02.1995 -2,6   0,0     2          
12.02.1995 1,9   0,7     0       1  
13.02.1995 3,6   3,6     9          
14.02.1995 5,1   1,8     0          
15.02.1995 5,3   4,0     0          
16.02.1995 4,7   3,8     0          
17.02.1995 1,5   1,8     0       1  
18.02.1995 2,8   2,1     8       1  
19.02.1995 3,6   7,5     3       1  
20.02.1995 1,5   1,8     2       1  
21.02.1995 1,7   11,7     1          
22.02.1995 1,3   12,3     0          
23.02.1995 1,5   9,5     2          
24.02.1995 2,9   7,0     3       1  
25.02.1995 0,1   2,0     0       1  
26.02.1995 -0,6   7,6     10       1  
27.02.1995 -0,5   0,0     8          
28.02.1995 4,0   15,5     0          
                       
                       
                       
Avrg/Sum 1,8   146,5     2,4       9